Flight Information

DEPARTURE
SANTA MONICA, CA
Elevation:
169
Runways:
H1 - 40x40 - ASPH-G
3/21 - 3500x150 - ASPH-G
ATIS:
119.15 310-450-4620
Ground:
121.9
Tower:
120.1
DESTINATION
,
Elevation:
TPA:
1000 (est.)


6795.3 NM73° True-14° Var59° HDG

Flight Plan:
(click to file on line)

1. Type
2. Aircraft Identification
3. Aircraft Type / Special Equipment
4. True Airspeed
kts
5. Departure Airport
(ICAO code)
6. Arriving Airport
(ICAO code)
7. Cruising Altitude
ft
8. Alternate Airport
(ICAO code)
9. Route of Flight
10. Remarks


00:00:00 Departure ATIS: Destination ATIS:

Clearance Limit:
Route:
Altitude: Expect in minutes
Frequency:
Transponder: (7500 Hijack / 7600 Lost Comms / 7700 Emergency)


KSMO 221513Z AUTO 00000KT 10SM BKN012 BKN020 OVC026 13/10 A3002 RMK AO2 T01280100
Time: 2021-01-22T15:13:00Z
1611328550
Winds: calm
Visibility: 10.0 sm
Clouds (AGL): BKN 1200
BKN 2000
OVC 2600
Temperature: 12.8 C
Dew Point: 10.0 C
Pressure: 30.02067 in Hgbr


Notes:

Data extracted from FAA Digital Chart Supplement. Effective: 0901Z Thursday, Dec 31, 2020 to 0901Z Thursday, Jan 28, 2021
Current ATIS data is provided courtisy of PilotEdge.